createdAt,value
2023-07-27T00:00:32.735Z,10.69
2023-07-27T00:05:36.140Z,11.77
2023-07-27T00:10:39.507Z,10.94
2023-07-27T00:15:43.083Z,10.76
2023-07-27T00:20:46.714Z,10.97
2023-07-27T00:25:50.372Z,10.80
2023-07-27T00:30:55.267Z,11.32
2023-07-27T00:35:59.765Z,11.11
2023-07-27T00:41:03.380Z,10.99
2023-07-27T00:46:07.125Z,10.98
2023-07-27T00:51:11.286Z,11.60
2023-07-27T00:56:16.331Z,11.13
2023-07-27T01:01:20.047Z,9.11
2023-07-27T01:06:24.470Z,10.05
2023-07-27T01:11:55.372Z,11.24
2023-07-27T01:17:23.988Z,12.11
2023-07-27T01:22:33.790Z,13.41
2023-07-27T01:27:56.485Z,14.19
2023-07-27T01:33:10.381Z,13.20
2023-07-27T01:38:15.722Z,13.78
2023-07-27T01:43:19.691Z,13.20
2023-07-27T01:48:24.227Z,13.44
2023-07-27T01:53:29.856Z,12.68
2023-07-27T01:58:33.803Z,12.15
2023-07-27T02:03:38.089Z,11.64
2023-07-27T02:08:41.741Z,11.47
2023-07-27T02:14:03.702Z,10.46
2023-07-27T02:19:08.763Z,11.77
2023-07-27T02:24:12.416Z,12.94
2023-07-27T02:29:15.754Z,12.82
2023-07-27T02:34:20.842Z,11.48
2023-07-27T02:39:24.333Z,12.43
2023-07-27T02:44:27.788Z,12.12
2023-07-27T02:49:31.136Z,11.82
2023-07-27T02:54:34.482Z,11.35
2023-07-27T02:59:37.806Z,12.06
2023-07-27T03:04:41.218Z,11.82
2023-07-27T03:09:44.597Z,10.53
2023-07-27T03:14:48.521Z,11.26
2023-07-27T03:19:51.855Z,11.62
2023-07-27T03:24:55.240Z,11.53
2023-07-27T03:29:58.811Z,10.37
2023-07-27T03:35:02.165Z,11.05
2023-07-27T03:40:06.116Z,12.37
2023-07-27T03:45:10.253Z,12.25
2023-07-27T03:50:14.628Z,12.92
2023-07-27T03:55:20.485Z,11.13
2023-07-27T04:00:24.056Z,11.25
2023-07-27T04:05:27.526Z,12.99
2023-07-27T04:10:33.765Z,11.16
2023-07-27T04:15:37.176Z,12.88
2023-07-27T04:20:40.553Z,11.62
2023-07-27T04:25:43.888Z,11.42
2023-07-27T04:30:47.261Z,13.06
2023-07-27T04:35:52.122Z,11.62
2023-07-27T04:40:56.505Z,12.90
2023-07-27T04:45:59.904Z,12.82
2023-07-27T04:51:04.829Z,12.86
2023-07-27T04:56:08.215Z,12.45
2023-07-27T05:01:11.615Z,13.59
2023-07-27T05:06:15.207Z,13.70
2023-07-27T05:11:18.642Z,12.87
2023-07-27T05:16:22.386Z,13.95
2023-07-27T05:21:26.097Z,14.19
2023-07-27T05:26:29.793Z,13.85
2023-07-27T05:31:33.235Z,14.23
2023-07-27T05:36:37.091Z,14.06
2023-07-27T05:41:40.548Z,15.05
2023-07-27T05:46:44.016Z,13.38
2023-07-27T05:51:47.502Z,13.96
2023-07-27T05:56:50.869Z,14.90
2023-07-27T06:01:54.498Z,15.94
2023-07-27T06:06:59.082Z,14.87
2023-07-27T06:12:06.308Z,16.70
2023-07-27T06:17:11.262Z,16.44
2023-07-27T06:22:14.810Z,17.03
2023-07-27T06:27:18.204Z,17.04
2023-07-27T06:32:21.820Z,17.71
2023-07-27T06:37:27.727Z,18.02
2023-07-27T06:42:31.053Z,18.05
2023-07-27T06:47:34.677Z,17.62
2023-07-27T06:52:38.258Z,16.82
2023-07-27T06:57:42.531Z,18.08
2023-07-27T07:02:45.944Z,18.83
2023-07-27T07:07:49.726Z,19.39
2023-07-27T07:12:53.422Z,19.76
2023-07-27T07:17:57.051Z,19.74
2023-07-27T07:23:00.417Z,19.71
2023-07-27T07:28:03.975Z,20.27
2023-07-27T07:33:07.572Z,19.52
2023-07-27T07:38:11.157Z,20.06
2023-07-27T07:43:14.505Z,20.38
2023-07-27T07:48:18.150Z,21.13
2023-07-27T07:53:33.943Z,20.08
2023-07-27T07:58:39.021Z,21.29
2023-07-27T08:03:42.457Z,21.48
2023-07-27T08:08:47.088Z,20.51
2023-07-27T08:13:50.524Z,21.98
2023-07-27T08:18:53.975Z,22.04
2023-07-27T08:23:57.327Z,21.71
2023-07-27T08:29:00.765Z,20.89
2023-07-27T08:34:04.097Z,22.57
2023-07-27T08:39:08.489Z,22.85
2023-07-27T08:44:15.018Z,23.07
2023-07-27T08:49:20.284Z,22.81
2023-07-27T08:54:23.721Z,22.98
2023-07-27T08:59:28.054Z,23.89
2023-07-27T09:04:31.469Z,24.13
2023-07-27T09:09:35.222Z,23.05
2023-07-27T09:14:39.147Z,23.76
2023-07-27T09:19:44.202Z,24.82
2023-07-27T09:24:47.735Z,25.02
2023-07-27T09:29:58.512Z,25.94
2023-07-27T09:35:01.873Z,25.36
2023-07-27T09:40:10.592Z,25.34
2023-07-27T09:45:18.413Z,23.30
2023-07-27T10:15:30.419Z,25.71
2023-07-27T10:30:20.899Z,25.58
2023-07-27T10:35:24.394Z,23.24
2023-07-27T10:40:33.341Z,24.49
2023-07-27T10:45:38.423Z,23.74
2023-07-27T10:50:42.211Z,25.62
2023-07-27T10:55:47.483Z,24.47
2023-07-27T11:15:21.070Z,24.67
2023-07-27T11:20:26.815Z,24.34
2023-07-27T11:25:37.062Z,23.58
2023-07-27T11:30:40.824Z,23.86
2023-07-27T11:35:49.631Z,22.69
2023-07-27T11:41:12.859Z,23.33
2023-07-27T11:46:21.989Z,23.49
2023-07-27T11:51:27.671Z,23.19
2023-07-27T11:56:35.227Z,23.38
2023-07-27T12:01:38.997Z,23.61
2023-07-27T12:06:43.421Z,24.94
2023-07-27T12:11:47.045Z,22.79
2023-07-27T12:21:56.839Z,23.87
2023-07-27T12:32:11.301Z,23.78
2023-07-27T12:42:23.968Z,22.94
2023-07-27T12:47:28.077Z,23.09
2023-07-27T12:52:32.195Z,23.66
2023-07-27T12:57:35.588Z,24.37
2023-07-27T13:02:39.811Z,24.11
2023-07-27T13:07:47.472Z,23.89
2023-07-27T13:12:50.983Z,24.07
2023-07-27T13:17:54.702Z,23.16
2023-07-27T13:22:58.727Z,24.39
2023-07-27T13:28:02.625Z,24.11
2023-07-27T13:33:06.186Z,23.97
2023-07-27T13:38:09.705Z,23.48
2023-07-27T13:43:13.313Z,24.00
2023-07-27T13:48:18.285Z,23.95
2023-07-27T13:53:22.021Z,22.55
2023-07-27T13:58:25.708Z,23.05
2023-07-27T14:03:29.263Z,23.74
2023-07-27T14:08:33.140Z,23.84
2023-07-27T14:13:36.568Z,23.88
2023-07-27T14:18:42.002Z,23.93
2023-07-27T14:23:46.070Z,23.70
2023-07-27T14:28:49.666Z,23.70
2023-07-27T14:33:55.989Z,24.14
2023-07-27T14:44:06.846Z,23.44
2023-07-27T14:49:10.431Z,24.03
2023-07-27T14:59:24.991Z,23.83
2023-07-27T15:09:35.393Z,23.70
2023-07-27T15:14:38.728Z,23.33
2023-07-27T15:19:43.375Z,24.31
2023-07-27T15:24:46.693Z,23.41
2023-07-27T15:29:58.261Z,23.62
2023-07-27T15:35:01.722Z,23.56
2023-07-27T15:40:06.340Z,24.02
2023-07-27T15:45:09.998Z,23.32
2023-07-27T15:50:13.341Z,23.55
2023-07-27T15:55:17.024Z,23.52
2023-07-27T16:00:20.638Z,23.27
2023-07-27T16:05:26.096Z,23.40
2023-07-27T16:10:29.536Z,23.74
2023-07-27T16:15:33.107Z,23.07
2023-07-27T16:20:36.523Z,23.80
2023-07-27T16:25:40.949Z,24.14
2023-07-27T16:30:44.817Z,22.85
2023-07-27T16:35:48.223Z,23.26
2023-07-27T16:40:57.631Z,22.64
2023-07-27T16:46:01.038Z,22.93
2023-07-27T16:51:08.179Z,23.48
2023-07-27T16:56:12.580Z,23.00
2023-07-27T17:01:17.841Z,23.26
2023-07-27T17:06:21.725Z,23.51
2023-07-27T17:11:26.062Z,23.78
2023-07-27T17:16:29.532Z,23.23
2023-07-27T17:21:32.841Z,23.25
2023-07-27T17:26:36.696Z,24.12
2023-07-27T17:31:40.553Z,24.05
2023-07-27T17:36:43.900Z,25.51
2023-07-27T17:41:47.704Z,26.19
2023-07-27T17:46:51.232Z,26.14
2023-07-27T17:51:54.605Z,26.26
2023-07-27T17:56:58.093Z,26.63
2023-07-27T18:02:02.462Z,26.71
2023-07-27T18:07:06.237Z,26.40
2023-07-27T18:12:09.978Z,25.80
2023-07-27T18:17:14.406Z,24.27
2023-07-27T18:22:17.859Z,22.64
2023-07-27T18:27:21.396Z,22.14
2023-07-27T18:32:24.811Z,20.86
2023-07-27T18:37:28.360Z,19.74
2023-07-27T18:42:35.623Z,19.33
2023-07-27T18:47:39.830Z,17.78
2023-07-27T18:52:43.329Z,17.94
2023-07-27T18:57:46.732Z,17.18
2023-07-27T19:02:50.098Z,17.69
2023-07-27T19:07:53.927Z,16.09
2023-07-27T19:12:57.255Z,15.09
2023-07-27T19:18:00.611Z,15.04
2023-07-27T19:23:04.153Z,15.63
2023-07-27T19:28:11.087Z,15.86
2023-07-27T19:33:15.971Z,16.39
2023-07-27T19:38:19.467Z,16.38
2023-07-27T19:43:25.006Z,16.02
2023-07-27T19:48:30.598Z,15.82
2023-07-27T19:53:35.105Z,15.12
2023-07-27T19:58:38.545Z,15.11
2023-07-27T20:03:47.183Z,15.39
2023-07-27T20:08:50.913Z,15.04
2023-07-27T20:13:54.788Z,16.06
2023-07-27T20:18:58.242Z,15.35
2023-07-27T20:24:02.969Z,15.32
2023-07-27T20:29:06.389Z,15.27
2023-07-27T20:34:10.590Z,14.64
2023-07-27T20:39:14.416Z,14.76
2023-07-27T20:44:17.965Z,15.06
2023-07-27T20:49:21.552Z,14.03
2023-07-27T20:54:25.028Z,14.09
2023-07-27T20:59:29.071Z,14.16
2023-07-27T21:04:32.633Z,13.26
2023-07-27T21:09:36.126Z,14.65
2023-07-27T21:14:39.571Z,13.06
2023-07-27T21:19:43.077Z,13.94
2023-07-27T21:24:46.696Z,14.34
2023-07-27T21:29:50.202Z,12.75
2023-07-27T21:34:53.674Z,14.41
2023-07-27T21:40:04.387Z,13.98
2023-07-27T21:45:16.933Z,11.93
2023-07-27T21:50:20.676Z,14.33
2023-07-27T21:55:24.186Z,12.61
2023-07-27T22:00:28.039Z,14.10
2023-07-27T22:05:32.321Z,13.77
2023-07-27T22:10:35.904Z,13.88
2023-07-27T22:15:39.398Z,14.01
2023-07-27T22:20:44.201Z,13.94
2023-07-27T22:25:47.689Z,13.01
2023-07-27T22:30:51.233Z,13.78
2023-07-27T22:35:54.938Z,13.93
2023-07-27T22:40:59.917Z,12.69
2023-07-27T22:46:03.470Z,14.05
2023-07-27T22:51:06.942Z,13.32
2023-07-27T22:56:10.583Z,12.65
2023-07-27T23:01:16.335Z,14.11
2023-07-27T23:06:19.879Z,13.74
2023-07-27T23:11:23.964Z,12.65
2023-07-27T23:16:27.899Z,11.37
2023-07-27T23:21:33.935Z,13.72
2023-07-27T23:26:37.774Z,13.12
2023-07-27T23:31:42.279Z,12.52
2023-07-27T23:36:47.390Z,13.52
2023-07-27T23:41:51.105Z,14.02
2023-07-27T23:46:54.515Z,13.50
2023-07-27T23:51:57.960Z,13.77
2023-07-27T23:57:02.046Z,13.21
